Time;durP1;ratioP1;P1;durP2;ratioP2;P2;SDS_P1;SDS_P2;PMS_P1;PMS_P2;Temp;Humidity;BMP_temperature;BMP_pressure;BME280_temperature;BME280_humidity;BME280_pressure;Samples;Min_cycle;Max_cycle;Signal;HPM_P1;HPM_P2
2021/05/14 00:00:28;;;;;;;11.77;5.75;;;10.10;99.90;;;;;;5082113;28;20029;-74
2021/05/14 00:02:54;;;;;;;14.65;5.75;;;10.10;99.90;;;;;;5069395;28;20033;-72
2021/05/14 00:05:20;;;;;;;10.50;5.32;;;10.00;99.90;;;;;;5064713;28;20068;-72
2021/05/14 00:07:48;;;;;;;13.15;5.32;;;10.00;99.90;;;;;;5063111;28;20025;-73
2021/05/14 00:10:14;;;;;;;11.55;5.60;;;10.00;99.90;;;;;;5064317;28;20077;-75
2021/05/14 00:12:40;;;;;;;14.63;6.45;;;10.00;99.90;;;;;;5063239;28;20036;-75
2021/05/14 00:15:06;;;;;;;9.98;5.25;;;10.00;99.90;;;;;;5064303;28;20029;-74
2021/05/14 00:17:34;;;;;;;9.50;4.20;;;10.00;99.90;;;;;;5062591;28;20503;-74
2021/05/14 00:19:59;;;;;;;12.25;4.80;;;10.00;99.90;;;;;;5064299;28;20028;-74
2021/05/14 00:22:25;;;;;;;11.70;5.32;;;10.00;99.90;;;;;;5064244;28;20025;-76
2021/05/14 00:24:51;;;;;;;12.85;5.53;;;10.00;99.90;;;;;;5064287;28;20128;-73
2021/05/14 00:27:16;;;;;;;9.95;4.97;;;9.90;99.90;;;;;;5063124;28;20044;-74
2021/05/14 00:29:42;;;;;;;13.13;5.50;;;10.00;99.90;;;;;;5063044;28;20029;-73
2021/05/14 00:32:08;;;;;;;10.13;5.40;;;9.90;99.90;;;;;;5064257;28;20069;-73
2021/05/14 00:34:36;;;;;;;11.15;5.15;;;9.90;99.90;;;;;;5064321;28;20025;-73
2021/05/14 00:37:01;;;;;;;12.25;5.38;;;9.90;99.90;;;;;;5063994;28;20077;-72
2021/05/14 00:39:27;;;;;;;21.48;5.28;;;9.90;99.90;;;;;;5064263;28;20029;-72
2021/05/14 00:41:52;;;;;;;9.85;4.13;;;9.80;99.90;;;;;;5064302;28;20025;-72
2021/05/14 00:44:33;;;;;;;14.70;5.88;;;9.80;99.90;;;;;;5064343;28;20029;-72
2021/05/14 00:47:04;;;;;;;11.90;5.63;;;9.70;99.90;;;;;;5062991;28;20115;-72
2021/05/14 00:49:30;;;;;;;11.73;5.50;;;9.70;99.90;;;;;;5062616;28;20492;-74
2021/05/14 00:51:57;;;;;;;15.85;6.22;;;9.70;99.90;;;;;;5062802;28;20053;-75
2021/05/14 00:54:22;;;;;;;16.17;7.20;;;9.70;99.90;;;;;;5064163;28;20021;-72
2021/05/14 00:56:48;;;;;;;13.63;6.22;;;9.70;99.90;;;;;;5062621;28;20075;-71
2021/05/14 00:59:14;;;;;;;16.60;6.40;;;9.70;99.90;;;;;;5062628;28;20025;-75
2021/05/14 01:01:40;;;;;;;11.10;5.78;;;9.60;99.90;;;;;;5064320;28;20032;-73
2021/05/14 01:04:06;;;;;;;13.00;6.00;;;9.60;99.90;;;;;;5063805;28;20025;-72
2021/05/14 01:06:32;;;;;;;23.10;5.63;;;9.60;99.90;;;;;;5067015;28;20033;-72
2021/05/14 01:09:01;;;;;;;18.70;5.72;;;9.60;99.90;;;;;;5067858;28;20090;-74
2021/05/14 01:11:27;;;;;;;13.35;6.40;;;9.50;99.90;;;;;;5067399;28;20047;-73
2021/05/14 01:13:56;;;;;;;8.60;4.88;;;9.50;99.90;;;;;;5067516;28;20064;-75
2021/05/14 01:16:22;;;;;;;10.40;4.75;;;9.50;99.90;;;;;;5066302;28;20036;-76
2021/05/14 01:18:48;;;;;;;12.80;4.78;;;9.50;99.90;;;;;;5067259;28;20528;-73
2021/05/14 01:21:13;;;;;;;15.45;4.78;;;9.40;99.90;;;;;;5067773;28;20047;-73
2021/05/14 01:23:39;;;;;;;10.55;4.25;;;9.40;99.90;;;;;;5067543;28;20025;-71
2021/05/14 01:26:13;;;;;;;12.98;5.35;;;9.40;99.90;;;;;;5067068;28;20025;-72
2021/05/14 01:28:39;;;;;;;15.70;5.53;;;9.40;99.90;;;;;;5067523;28;20048;-73
2021/05/14 01:31:05;;;;;;;8.32;3.75;;;9.40;99.90;;;;;;5067248;28;20416;-72
2021/05/14 01:33:31;;;;;;;7.80;3.72;;;9.40;99.90;;;;;;5067028;28;20025;-74
2021/05/14 01:35:57;;;;;;;7.32;3.45;;;9.40;99.90;;;;;;5067041;28;20040;-74
2021/05/14 01:38:23;;;;;;;11.38;3.95;;;9.40;99.90;;;;;;5067137;28;20021;-73
2021/05/14 01:40:49;;;;;;;6.18;3.05;;;9.50;99.90;;;;;;5067028;28;20037;-74
2021/05/14 01:43:15;;;;;;;7.75;3.70;;;9.50;99.90;;;;;;5067376;28;20108;-74
2021/05/14 01:45:40;;;;;;;8.02;4.05;;;9.40;99.90;;;;;;5086552;28;20035;-73
2021/05/14 01:48:06;;;;;;;6.10;3.45;;;9.50;99.90;;;;;;5075179;28;20052;-74
2021/05/14 01:50:32;;;;;;;6.13;3.17;;;9.40;99.90;;;;;;5069903;28;20057;-72
2021/05/14 01:52:57;;;;;;;10.88;4.88;;;9.40;99.90;;;;;;5066860;28;20421;-74
2021/05/14 01:55:23;;;;;;;8.23;3.55;;;9.40;99.90;;;;;;5066766;28;20029;-74
2021/05/14 01:57:49;;;;;;;5.07;2.60;;;9.30;99.90;;;;;;5065783;28;20112;-76
2021/05/14 02:00:15;;;;;;;10.20;3.88;;;9.30;99.90;;;;;;5065449;28;20498;-75
2021/05/14 02:02:41;;;;;;;14.10;4.35;;;9.40;99.90;;;;;;5066662;28;20032;-73
2021/05/14 02:05:07;;;;;;;10.48;5.03;;;9.30;99.90;;;;;;5066629;28;20104;-73
2021/05/14 02:07:33;;;;;;;8.27;3.90;;;9.30;99.90;;;;;;5065007;28;20029;-73
2021/05/14 02:09:59;;;;;;;6.60;3.55;;;9.30;99.90;;;;;;5065041;28;20638;-73
2021/05/14 02:12:25;;;;;;;12.25;4.32;;;9.30;99.90;;;;;;5066636;28;20107;-74
2021/05/14 02:14:50;;;;;;;10.50;4.07;;;9.20;99.90;;;;;;5066352;28;20058;-77
2021/05/14 02:17:16;;;;;;;10.98;3.90;;;9.30;99.90;;;;;;5064680;28;20144;-75
2021/05/14 02:19:41;;;;;;;5.90;3.10;;;9.30;99.90;;;;;;5065286;28;20400;-76
2021/05/14 02:22:07;;;;;;;7.07;3.70;;;9.30;99.90;;;;;;5066160;28;20029;-74
2021/05/14 02:24:33;;;;;;;9.10;4.20;;;9.30;99.90;;;;;;5066182;28;20033;-75
2021/05/14 02:26:59;;;;;;;9.73;3.70;;;9.30;99.90;;;;;;5066320;28;20036;-76
2021/05/14 02:29:24;;;;;;;7.43;4.03;;;9.30;99.90;;;;;;5065761;28;20036;-75
2021/05/14 02:31:50;;;;;;;6.03;3.90;;;9.40;99.90;;;;;;5066282;28;20104;-75
2021/05/14 02:34:16;;;;;;;18.83;4.95;;;9.30;99.90;;;;;;5065043;28;20477;-76
2021/05/14 02:36:42;;;;;;;21.77;5.20;;;9.30;99.90;;;;;;5065750;28;20081;-75
2021/05/14 02:39:08;;;;;;;9.48;5.15;;;9.30;99.90;;;;;;5066174;28;20029;-76
2021/05/14 02:41:38;;;;;;;9.90;5.65;;;9.30;99.90;;;;;;5065974;28;20054;-75
2021/05/14 02:44:05;;;;;;;11.82;5.18;;;9.30;99.90;;;;;;5065559;28;20037;-72
2021/05/14 02:46:32;;;;;;;15.60;5.47;;;9.30;99.90;;;;;;5064730;28;20025;-71
2021/05/14 02:48:58;;;;;;;9.73;5.18;;;9.30;99.90;;;;;;5065752;28;20469;-71
2021/05/14 02:51:24;;;;;;;8.95;5.13;;;9.40;99.90;;;;;;5064949;28;20067;-74
2021/05/14 02:53:49;;;;;;;14.32;5.20;;;9.40;99.90;;;;;;5066005;28;20055;-74
2021/05/14 02:56:15;;;;;;;16.80;4.93;;;9.40;99.90;;;;;;5064512;28;20029;-72
2021/05/14 02:58:41;;;;;;;7.18;4.13;;;9.40;99.90;;;;;;5065608;28;20033;-74
2021/05/14 03:01:06;;;;;;;12.60;5.32;;;9.40;99.90;;;;;;5064190;28;20084;-70
2021/05/14 03:03:32;;;;;;;17.52;4.47;;;9.30;99.90;;;;;;5065638;28;20049;-74
2021/05/14 03:05:57;;;;;;;12.70;4.38;;;9.30;99.90;;;;;;5063779;28;20923;-72
2021/05/14 03:08:23;;;;;;;14.32;5.32;;;9.30;99.90;;;;;;5065484;28;20413;-71
2021/05/14 03:10:48;;;;;;;8.75;5.07;;;9.30;99.90;;;;;;5065433;28;20044;-71
2021/05/14 03:13:14;;;;;;;10.50;4.30;;;9.30;99.90;;;;;;5065365;28;20036;-73
2021/05/14 03:15:39;;;;;;;20.00;5.47;;;9.30;99.90;;;;;;5064346;28;20024;-72
2021/05/14 03:18:05;;;;;;;17.20;5.35;;;9.30;99.90;;;;;;5065529;28;20539;-72
2021/05/14 03:20:31;;;;;;;10.90;5.47;;;9.20;99.90;;;;;;5064853;28;20033;-74
2021/05/14 03:22:57;;;;;;;9.77;4.50;;;9.20;99.90;;;;;;5063897;28;20028;-71
2021/05/14 03:25:24;;;;;;;18.35;3.70;;;9.30;99.90;;;;;;5063992;28;20021;-72
2021/05/14 03:27:49;;;;;;;6.75;3.83;;;9.20;99.90;;;;;;5064770;28;20025;-74
2021/05/14 03:30:15;;;;;;;14.18;4.57;;;9.30;99.90;;;;;;5064683;28;20080;-70
2021/05/14 03:32:41;;;;;;;9.80;3.58;;;9.30;99.90;;;;;;5064837;28;20048;-73
2021/05/14 03:35:08;;;;;;;10.00;3.15;;;9.20;99.90;;;;;;5064958;28;20025;-74
2021/05/14 03:37:33;;;;;;;12.25;3.67;;;9.30;99.90;;;;;;5064978;28;20050;-74
2021/05/14 03:40:04;;;;;;;12.25;2.95;;;9.20;99.90;;;;;;5063374;28;20093;-71
2021/05/14 03:42:30;;;;;;;7.15;3.47;;;9.20;99.90;;;;;;5065152;28;20032;-72
2021/05/14 03:44:56;;;;;;;12.80;3.40;;;9.20;99.90;;;;;;5065033;28;20029;-72
2021/05/14 03:47:23;;;;;;;6.68;3.45;;;9.20;99.90;;;;;;5063266;28;20030;-72
2021/05/14 03:49:49;;;;;;;9.38;3.22;;;9.20;99.90;;;;;;5063929;28;20029;-72
2021/05/14 03:52:14;;;;;;;4.43;2.70;;;9.20;99.90;;;;;;5064844;28;20078;-70
2021/05/14 03:54:41;;;;;;;19.58;3.60;;;9.20;99.90;;;;;;5064504;28;20021;-72
2021/05/14 03:57:07;;;;;;;7.78;3.33;;;9.20;99.90;;;;;;5065080;28;20085;-72
2021/05/14 03:59:33;;;;;;;7.25;2.72;;;9.20;99.90;;;;;;5064573;28;20013;-72
2021/05/14 04:02:02;;;;;;;16.13;3.92;;;9.20;99.90;;;;;;5064521;28;20059;-71
2021/05/14 04:04:27;;;;;;;4.38;3.28;;;9.20;99.90;;;;;;5064728;28;20059;-72
2021/05/14 04:06:53;;;;;;;11.88;4.13;;;9.20;99.90;;;;;;5064481;28;20029;-73
2021/05/14 04:09:31;;;;;;;13.10;3.17;;;9.20;99.90;;;;;;5064457;28;20055;-72
2021/05/14 04:14:40;;;;;;;10.70;4.10;;;9.30;99.90;;;;;;5064379;28;20504;-73
2021/05/14 04:17:06;;;;;;;8.80;3.38;;;9.30;99.90;;;;;;5063124;28;20025;-72
2021/05/14 04:19:33;;;;;;;7.78;3.38;;;9.30;99.90;;;;;;5064502;28;20036;-71
2021/05/14 04:22:02;;;;;;;4.22;2.45;;;9.30;99.90;;;;;;5064229;28;20045;-73
2021/05/14 04:24:27;;;;;;;8.60;2.75;;;9.30;99.90;;;;;;5064388;28;20028;-70
2021/05/14 04:26:55;;;;;;;13.75;3.28;;;9.30;99.90;;;;;;5064434;28;20029;-71
2021/05/14 04:29:21;;;;;;;13.18;3.00;;;9.40;99.90;;;;;;5062849;28;20120;-72
2021/05/14 04:31:47;;;;;;;9.38;3.88;;;9.30;99.90;;;;;;5064382;28;20036;-71
2021/05/14 04:34:15;;;;;;;7.95;3.45;;;9.30;99.90;;;;;;5064727;28;20084;-71
2021/05/14 04:36:41;;;;;;;6.30;2.90;;;9.30;99.90;;;;;;5062673;28;20029;-69
2021/05/14 04:39:08;;;;;;;9.73;3.67;;;9.30;99.90;;;;;;5066899;28;20109;-67
2021/05/14 04:41:35;;;;;;;7.57;3.63;;;9.30;99.90;;;;;;5076580;28;20053;-69
2021/05/14 04:44:01;;;;;;;11.90;3.63;;;9.20;99.90;;;;;;5066390;28;20051;-68
2021/05/14 04:46:27;;;;;;;12.48;3.65;;;9.20;99.90;;;;;;5068348;28;20036;-70
2021/05/14 04:48:53;;;;;;;6.40;3.60;;;9.20;99.90;;;;;;5068053;28;20059;-70
2021/05/14 04:51:20;;;;;;;6.63;3.17;;;9.20;99.90;;;;;;5067151;28;20106;-69
2021/05/14 04:53:46;;;;;;;11.00;3.50;;;9.20;99.90;;;;;;5066841;28;20021;-73
2021/05/14 04:56:14;;;;;;;13.20;4.22;;;9.10;99.90;;;;;;5067969;28;20033;-74
2021/05/14 04:58:44;;;;;;;16.55;3.85;;;9.10;99.90;;;;;;5067750;28;20028;-72
2021/05/14 05:01:12;;;;;;;11.00;3.60;;;9.10;99.90;;;;;;5067988;28;20025;-71
2021/05/14 05:03:38;;;;;;;9.77;3.45;;;9.10;99.90;;;;;;5067517;28;20086;-74
2021/05/14 05:06:04;;;;;;;5.80;3.72;;;9.10;99.90;;;;;;5067127;28;20071;-71
2021/05/14 05:08:30;;;;;;;7.03;3.65;;;9.00;99.90;;;;;;5067752;28;20021;-73
2021/05/14 05:10:55;;;;;;;7.93;3.55;;;9.10;99.90;;;;;;5066226;28;20043;-71
2021/05/14 05:13:21;;;;;;;10.80;3.50;;;9.10;99.90;;;;;;5066396;28;20033;-71
2021/05/14 05:15:47;;;;;;;12.73;4.05;;;9.20;99.90;;;;;;5067512;28;20025;-71
2021/05/14 05:18:12;;;;;;;10.90;4.20;;;9.20;99.90;;;;;;5068007;28;20032;-70
2021/05/14 05:20:38;;;;;;;11.05;3.58;;;9.20;99.90;;;;;;5065748;28;20143;-73
2021/05/14 05:23:05;;;;;;;10.48;3.65;;;9.20;99.90;;;;;;5067495;28;20036;-71
2021/05/14 05:25:31;;;;;;;9.02;3.70;;;9.20;99.90;;;;;;5065850;28;20029;-73
2021/05/14 05:27:56;;;;;;;7.90;4.40;;;9.30;99.90;;;;;;5067370;28;20067;-70
2021/05/14 05:30:24;;;;;;;13.07;3.97;;;9.30;99.90;;;;;;5066125;28;20108;-71
2021/05/14 05:32:50;;;;;;;10.50;4.15;;;9.30;99.90;;;;;;5067223;28;20044;-72
2021/05/14 05:35:16;;;;;;;7.85;3.42;;;9.40;99.90;;;;;;5067421;28;20048;-70
2021/05/14 05:37:41;;;;;;;13.02;4.82;;;9.40;99.90;;;;;;5066254;28;20489;-75
2021/05/14 05:40:08;;;;;;;8.18;3.30;;;9.50;99.90;;;;;;5065679;28;20045;-74
2021/05/14 05:42:33;;;;;;;7.05;3.65;;;9.50;99.90;;;;;;5069734;28;20048;-73
2021/05/14 05:44:59;;;;;;;12.70;4.03;;;9.50;99.90;;;;;;5075669;28;20025;-73
2021/05/14 05:47:25;;;;;;;9.30;3.78;;;9.50;99.90;;;;;;5066528;28;20032;-72
2021/05/14 05:49:50;;;;;;;8.35;3.75;;;9.50;99.90;;;;;;5066525;28;20052;-73
2021/05/14 05:52:16;;;;;;;7.40;4.68;;;9.50;99.90;;;;;;5064859;28;20041;-72
2021/05/14 05:54:42;;;;;;;16.77;3.63;;;9.50;99.90;;;;;;5066879;28;20108;-71
2021/05/14 05:57:07;;;;;;;8.10;3.10;;;9.50;99.90;;;;;;5066860;28;20060;-76
2021/05/14 05:59:35;;;;;;;9.18;3.92;;;9.50;99.90;;;;;;5066820;28;20033;-71
2021/05/14 06:02:01;;;;;;;8.98;3.55;;;9.50;99.90;;;;;;5066390;28;20024;-71
2021/05/14 06:04:27;;;;;;;17.08;3.80;;;9.50;99.90;;;;;;5066956;28;20037;-73
2021/05/14 06:06:53;;;;;;;6.18;3.20;;;9.50;99.90;;;;;;5066648;28;20041;-70
2021/05/14 06:09:18;;;;;;;14.15;3.65;;;9.60;99.90;;;;;;5066714;28;20358;-74
2021/05/14 06:11:44;;;;;;;9.32;3.38;;;9.60;99.90;;;;;;5065579;28;20037;-76
2021/05/14 06:14:10;;;;;;;14.30;3.83;;;9.60;99.90;;;;;;5066581;28;20049;-73
2021/05/14 06:16:35;;;;;;;16.80;4.53;;;9.70;99.90;;;;;;5066577;28;20029;-72
2021/05/14 06:21:46;;;;;;;9.80;3.55;;;9.70;99.90;;;;;;5066463;28;20051;-73
2021/05/14 06:24:16;;;;;;;7.22;3.13;;;9.80;99.90;;;;;;5066796;28;20013;-73
2021/05/14 06:26:43;;;;;;;9.07;5.00;;;9.80;99.90;;;;;;5066432;28;20029;-71
2021/05/14 06:29:09;;;;;;;11.10;3.97;;;9.90;99.90;;;;;;5065998;28;20036;-69
2021/05/14 06:31:35;;;;;;;8.77;2.60;;;9.80;99.90;;;;;;5066316;28;20036;-71
2021/05/14 06:34:01;;;;;;;12.15;3.65;;;9.80;99.90;;;;;;5066263;28;20029;-71
2021/05/14 06:36:26;;;;;;;8.63;4.45;;;9.90;99.90;;;;;;5065805;28;20033;-73
2021/05/14 06:38:52;;;;;;;13.88;3.92;;;9.90;99.90;;;;;;5066192;28;20036;-72
2021/05/14 06:41:17;;;;;;;15.02;4.68;;;10.00;99.90;;;;;;5064369;28;20052;-73
2021/05/14 06:43:43;;;;;;;9.57;3.35;;;10.00;99.90;;;;;;5065211;28;20033;-71
2021/05/14 06:46:09;;;;;;;12.52;4.43;;;10.10;99.90;;;;;;5065608;28;20044;-74
2021/05/14 06:48:35;;;;;;;12.35;3.40;;;10.10;99.90;;;;;;5063766;28;20036;-73
2021/05/14 06:51:01;;;;;;;7.60;3.22;;;10.20;99.90;;;;;;5078601;28;20052;-74
2021/05/14 06:53:27;;;;;;;8.52;3.58;;;10.20;99.90;;;;;;5084310;28;20035;-70
2021/05/14 06:55:53;;;;;;;6.20;2.83;;;10.30;99.90;;;;;;5085336;28;20020;-71
2021/05/14 06:58:19;;;;;;;8.77;3.67;;;10.30;99.90;;;;;;5084325;28;20499;-73
2021/05/14 07:00:44;;;;;;;10.52;3.00;;;10.30;99.90;;;;;;5086028;28;20033;-75
2021/05/14 07:03:10;;;;;;;13.63;4.13;;;10.30;99.90;;;;;;5084211;28;20364;-73
2021/05/14 07:05:36;;;;;;;12.07;4.18;;;10.30;99.90;;;;;;5083817;28;20046;-76
2021/05/14 07:08:02;;;;;;;9.60;3.53;;;10.30;99.90;;;;;;5085226;28;20025;-70
2021/05/14 07:10:28;;;;;;;11.15;3.88;;;10.40;99.90;;;;;;5085159;28;20028;-70
2021/05/14 07:12:54;;;;;;;10.68;4.05;;;10.40;99.90;;;;;;5084112;28;20550;-73
2021/05/14 07:15:21;;;;;;;17.45;3.90;;;10.40;99.90;;;;;;5085805;28;20028;-74
2021/05/14 07:17:47;;;;;;;15.48;4.10;;;10.40;99.90;;;;;;5079799;28;20529;-72
2021/05/14 07:20:13;;;;;;;10.52;3.92;;;10.40;99.90;;;;;;5079202;28;20044;-72
2021/05/14 07:22:40;;;;;;;11.38;4.53;;;10.40;99.90;;;;;;5067642;28;20025;-72
2021/05/14 07:25:07;;;;;;;11.18;3.85;;;10.40;99.90;;;;;;5068519;28;20551;-71
2021/05/14 07:27:33;;;;;;;6.30;3.83;;;10.40;99.90;;;;;;5069396;28;20103;-72
2021/05/14 07:29:59;;;;;;;9.82;4.30;;;10.30;99.90;;;;;;5062522;28;20029;-70
2021/05/14 07:32:25;;;;;;;15.07;4.35;;;10.50;99.90;;;;;;5069622;28;20049;-72
2021/05/14 07:34:52;;;;;;;8.85;4.55;;;10.40;99.90;;;;;;5071763;28;20134;-72
2021/05/14 07:37:19;;;;;;;8.65;4.15;;;10.50;99.90;;;;;;5063673;28;20048;-74
2021/05/14 07:39:45;;;;;;;13.65;4.70;;;10.50;99.90;;;;;;5064344;28;20051;-71
2021/05/14 07:42:10;;;;;;;10.50;4.78;;;10.50;99.90;;;;;;5065049;28;20025;-74
2021/05/14 07:44:36;;;;;;;9.25;4.20;;;10.50;99.90;;;;;;5064188;28;20032;-72
2021/05/14 07:47:02;;;;;;;15.20;4.68;;;10.50;99.90;;;;;;5062291;28;20040;-72
2021/05/14 07:49:27;;;;;;;8.25;3.75;;;10.50;99.90;;;;;;5063892;28;20029;-70
2021/05/14 07:51:53;;;;;;;12.30;5.45;;;10.60;99.90;;;;;;5063353;28;20052;-74
2021/05/14 07:54:19;;;;;;;8.77;4.50;;;10.60;99.90;;;;;;5064860;28;20051;-75
2021/05/14 07:56:45;;;;;;;11.68;4.82;;;10.60;99.90;;;;;;5063530;28;20473;-72
2021/05/14 07:59:11;;;;;;;25.55;4.63;;;10.60;99.90;;;;;;5064678;28;20044;-74
2021/05/14 08:01:38;;;;;;;12.65;5.07;;;10.60;99.90;;;;;;5064653;28;20056;-73
2021/05/14 08:04:05;;;;;;;19.55;5.55;;;10.60;99.90;;;;;;5064717;28;20029;-72
2021/05/14 08:06:30;;;;;;;8.05;4.38;;;10.60;99.90;;;;;;5062760;28;20088;-74
2021/05/14 08:08:58;;;;;;;7.80;4.10;;;10.70;99.90;;;;;;5063147;28;20051;-74
2021/05/14 08:11:23;;;;;;;7.97;3.72;;;10.70;99.90;;;;;;5064496;28;20033;-72
2021/05/14 08:13:49;;;;;;;16.52;4.88;;;10.70;99.90;;;;;;5063912;28;20032;-71
2021/05/14 08:16:15;;;;;;;7.53;4.38;;;10.80;99.90;;;;;;5063873;28;20021;-73
2021/05/14 08:18:40;;;;;;;10.85;4.53;;;10.80;99.90;;;;;;5065365;28;20041;-71
2021/05/14 08:21:06;;;;;;;10.80;4.53;;;10.90;99.90;;;;;;5064258;28;20033;-75
2021/05/14 08:23:31;;;;;;;10.02;4.07;;;10.90;99.90;;;;;;5063242;28;20021;-69
2021/05/14 08:25:57;;;;;;;10.10;4.28;;;10.90;99.90;;;;;;5064149;28;20426;-72
2021/05/14 08:28:23;;;;;;;6.40;2.47;;;11.00;99.90;;;;;;5064220;28;20029;-71
2021/05/14 08:30:49;;;;;;;12.23;3.28;;;11.10;99.90;;;;;;5064374;28;20025;-74
2021/05/14 08:33:15;;;;;;;7.05;2.83;;;11.10;99.90;;;;;;5063050;28;20354;-74
2021/05/14 08:35:42;;;;;;;6.13;3.05;;;11.20;99.90;;;;;;5064404;28;20051;-69
2021/05/14 08:38:09;;;;;;;7.25;3.00;;;11.10;99.90;;;;;;5064391;28;20040;-69
2021/05/14 08:40:37;;;;;;;5.85;3.15;;;11.10;99.90;;;;;;5063937;28;20203;-73
2021/05/14 08:43:03;;;;;;;4.13;2.25;;;11.10;99.90;;;;;;5064657;28;20063;-70
2021/05/14 08:45:29;;;;;;;7.40;3.17;;;11.00;99.90;;;;;;5063034;28;20029;-72
2021/05/14 08:47:56;;;;;;;7.78;3.15;;;10.90;99.90;;;;;;5063907;28;20025;-70
2021/05/14 08:50:22;;;;;;;6.90;3.47;;;10.90;99.90;;;;;;5063697;28;20104;-72
2021/05/14 08:52:48;;;;;;;8.30;3.03;;;11.00;99.90;;;;;;5064049;28;20040;-71
2021/05/14 08:55:15;;;;;;;6.20;3.05;;;11.10;99.90;;;;;;5064046;28;20096;-70
2021/05/14 08:57:41;;;;;;;9.25;2.85;;;11.10;99.90;;;;;;5068838;28;20028;-72
2021/05/14 09:00:10;;;;;;;12.48;3.58;;;11.10;99.90;;;;;;5077961;28;20098;-72
2021/05/14 09:02:37;;;;;;;3.25;2.22;;;11.10;99.90;;;;;;5078532;28;20032;-73
2021/05/14 09:05:27;;;;;;;6.72;2.65;;;11.20;99.90;;;;;;5073562;28;20029;-71
2021/05/14 09:07:55;;;;;;;9.63;2.72;;;11.20;99.90;;;;;;5063936;28;20040;-73
2021/05/14 09:10:25;;;;;;;13.15;3.25;;;11.10;99.90;;;;;;5062408;28;20029;-73
2021/05/14 09:12:51;;;;;;;7.00;2.20;;;11.10;99.90;;;;;;5062690;28;20051;-70
2021/05/14 09:15:33;;;;;;;6.88;2.80;;;11.20;99.90;;;;;;5063801;28;20537;-72
2021/05/14 09:18:10;;;;;;;11.70;3.38;;;11.20;99.90;;;;;;5063634;28;20466;-68
2021/05/14 09:20:45;;;;;;;8.63;2.45;;;11.20;99.90;;;;;;5063351;28;20017;-73
2021/05/14 09:23:20;;;;;;;8.45;3.28;;;11.10;99.90;;;;;;5063726;28;20384;-74
2021/05/14 09:25:59;;;;;;;15.85;2.63;;;11.20;99.90;;;;;;5062606;28;20037;-72
2021/05/14 09:28:42;;;;;;;11.18;2.72;;;11.40;99.90;;;;;;5066638;28;20033;-71
2021/05/14 09:31:14;;;;;;;7.97;2.97;;;11.60;99.90;;;;;;5067036;28;20040;-72
2021/05/14 09:33:44;;;;;;;7.35;2.53;;;11.70;99.90;;;;;;5067596;28;20514;-73
2021/05/14 09:36:12;;;;;;;15.18;3.80;;;11.80;99.90;;;;;;5066883;28;20033;-74
2021/05/14 09:38:47;;;;;;;9.30;3.40;;;11.90;99.90;;;;;;5066499;28;20029;-73
2021/05/14 09:41:22;;;;;;;13.93;3.22;;;11.90;99.90;;;;;;5067260;28;20045;-69
2021/05/14 09:43:55;;;;;;;7.70;3.13;;;11.90;99.90;;;;;;5066675;28;20036;-71
2021/05/14 09:46:29;;;;;;;13.82;2.90;;;11.80;99.90;;;;;;5067232;28;20060;-69
2021/05/14 09:48:58;;;;;;;6.88;3.25;;;11.80;99.90;;;;;;5066976;28;20047;-71
2021/05/14 09:51:25;;;;;;;11.60;3.47;;;11.70;99.90;;;;;;5064065;28;20408;-69
2021/05/14 09:53:51;;;;;;;8.85;3.00;;;11.70;99.90;;;;;;5067101;28;20091;-74
2021/05/14 09:56:54;;;;;;;7.97;3.33;;;11.50;99.90;;;;;;5066765;28;20025;-70
2021/05/14 09:59:12;;;;;;;13.63;3.47;;;11.60;99.90;;;;;;5068872;28;20074;-74
2021/05/14 10:01:39;;;;;;;14.30;3.38;;;11.60;99.90;;;;;;5085149;28;20511;-72
2021/05/14 10:04:05;;;;;;;6.28;2.33;;;11.60;99.90;;;;;;5084569;28;20040;-69
2021/05/14 10:06:35;;;;;;;8.48;3.05;;;11.70;99.90;;;;;;5085995;28;20020;-70
2021/05/14 10:09:07;;;;;;;5.50;3.22;;;11.80;99.90;;;;;;5084636;28;20199;-71
2021/05/14 10:11:34;;;;;;;19.55;3.33;;;11.90;99.90;;;;;;5085357;28;20120;-72
2021/05/14 10:14:02;;;;;;;5.72;3.03;;;12.00;99.90;;;;;;5083547;28;20142;-73
2021/05/14 10:16:27;;;;;;;7.82;3.60;;;12.00;99.90;;;;;;5083666;28;20099;-72
2021/05/14 10:18:53;;;;;;;6.18;2.88;;;12.00;99.90;;;;;;5085196;28;20024;-72
2021/05/14 10:21:20;;;;;;;11.93;2.80;;;12.00;99.90;;;;;;5085503;28;20067;-70
2021/05/14 10:23:47;;;;;;;4.68;3.38;;;12.00;99.90;;;;;;5085994;28;20059;-72
2021/05/14 10:26:14;;;;;;;15.68;2.83;;;12.00;99.90;;;;;;5084637;28;20040;-70
2021/05/14 10:28:49;;;;;;;6.18;2.83;;;12.00;99.90;;;;;;5085514;28;20629;-74
2021/05/14 10:31:21;;;;;;;8.45;3.22;;;12.10;99.90;;;;;;5085612;28;20051;-73
2021/05/14 10:33:55;;;;;;;5.13;2.03;;;12.10;99.90;;;;;;5085344;28;20080;-74
2021/05/14 10:36:21;;;;;;;;;;;12.10;99.90;;;;;;5084830;28;20088;-72
2021/05/14 10:39:26;;;;;;;4.75;2.10;;;12.10;99.90;;;;;;5084424;28;19912;-73
2021/05/14 10:41:59;;;;;;;7.10;4.10;;;12.10;99.90;;;;;;5083857;28;20096;-74
2021/05/14 10:44:51;;;;;;;12.65;3.30;;;12.10;99.90;;;;;;5085179;28;20027;-73
2021/05/14 10:47:23;;;;;;;5.00;2.45;;;12.10;99.90;;;;;;5085245;28;20457;-73
2021/05/14 10:49:55;;;;;;;7.65;2.78;;;12.10;99.90;;;;;;5085316;28;20032;-72
2021/05/14 10:52:20;;;;;;;7.65;2.83;;;12.10;99.90;;;;;;5084686;28;20044;-72
2021/05/14 10:54:46;;;;;;;3.83;2.70;;;12.10;99.90;;;;;;5083824;28;20024;-71
2021/05/14 10:57:13;;;;;;;8.32;2.83;;;12.00;99.90;;;;;;5085584;28;20024;-73
2021/05/14 10:59:43;;;;;;;14.90;3.53;;;12.00;99.90;;;;;;5085494;28;20025;-73
2021/05/14 11:02:28;;;;;;;6.15;3.63;;;11.90;99.90;;;;;;5085239;28;20028;-75
2021/05/14 11:04:55;;;;;;;8.30;2.80;;;12.00;99.90;;;;;;5083528;28;20028;-72
2021/05/14 11:07:37;;;;;;;10.20;3.17;;;12.00;99.90;;;;;;5083855;28;20066;-74
2021/05/14 11:10:26;;;;;;;7.32;3.75;;;12.00;99.90;;;;;;5083949;28;20033;-75
2021/05/14 11:12:52;;;;;;;8.23;3.20;;;12.10;99.90;;;;;;5085362;28;20033;-74
2021/05/14 11:15:17;;;;;;;8.75;3.05;;;12.10;99.90;;;;;;5083284;28;20036;-71
2021/05/14 11:18:03;;;;;;;6.22;3.15;;;12.10;99.90;;;;;;5085189;28;20092;-71
2021/05/14 11:20:41;;;;;;;8.10;2.83;;;12.10;99.90;;;;;;5082331;28;20095;-73
2021/05/14 11:23:38;;;;;;;10.43;3.00;;;12.20;99.90;;;;;;5083947;28;20051;-74
2021/05/14 11:26:05;;;;;;;5.78;3.38;;;12.30;99.90;;;;;;5084396;28;20028;-77
2021/05/14 11:28:48;;;;;;;9.85;3.42;;;12.30;99.90;;;;;;5083397;28;20107;-72
2021/05/14 11:31:21;;;;;;;6.15;2.90;;;12.50;99.90;;;;;;5084655;28;20082;-74
2021/05/14 11:33:49;;;;;;;8.75;2.90;;;12.70;99.90;;;;;;5085396;28;20029;-69
2021/05/14 11:36:16;;;;;;;6.47;3.10;;;12.90;99.90;;;;;;5084973;28;20453;-73
2021/05/14 11:38:53;;;;;;;7.72;2.92;;;12.90;99.90;;;;;;5084871;28;20025;-69
2021/05/14 11:41:29;;;;;;;5.68;2.88;;;13.00;99.90;;;;;;5083733;28;20028;-71
2021/05/14 11:43:56;;;;;;;23.27;3.55;;;13.00;99.90;;;;;;5084464;28;20107;-71
2021/05/14 11:46:25;;;;;;;7.22;3.30;;;13.10;99.90;;;;;;5083957;28;20029;-72
2021/05/14 11:48:51;;;;;;;6.80;2.70;;;13.20;99.90;;;;;;5084746;28;20055;-70
2021/05/14 11:51:17;;;;;;;5.32;2.28;;;13.20;99.90;;;;;;5083740;28;20056;-71
2021/05/14 11:53:43;;;;;;;5.63;3.45;;;13.40;99.90;;;;;;5085129;28;20028;-71
2021/05/14 11:56:09;;;;;;;7.18;2.78;;;13.60;99.90;;;;;;5083743;28;20024;-71
2021/05/14 11:58:34;;;;;;;5.20;2.25;;;13.80;99.90;;;;;;5084496;28;20035;-70
2021/05/14 12:01:03;;;;;;;9.68;2.70;;;13.80;99.90;;;;;;5084760;28;20054;-70
2021/05/14 12:03:28;;;;;;;6.03;2.53;;;14.00;99.90;;;;;;5084666;28;20098;-70
2021/05/14 12:06:07;;;;;;;8.07;3.17;;;14.20;99.90;;;;;;5084478;28;20021;-72
2021/05/14 12:08:32;;;;;;;3.97;2.55;;;14.30;99.90;;;;;;5085026;28;20025;-73
2021/05/14 12:11:09;;;;;;;7.20;2.65;;;14.30;99.90;;;;;;5084571;28;20058;-70
2021/05/14 12:13:42;;;;;;;7.32;3.63;;;14.30;99.90;;;;;;5084532;28;20060;-71
2021/05/14 12:16:16;;;;;;;18.45;3.70;;;14.40;99.90;;;;;;5083642;28;20115;-74
2021/05/14 12:18:46;;;;;;;12.20;2.90;;;14.40;99.90;;;;;;5083201;28;20105;-72
2021/05/14 12:21:25;;;;;;;5.65;2.92;;;14.20;99.90;;;;;;5083270;28;20029;-72
2021/05/14 12:23:52;;;;;;;3.33;2.30;;;14.30;99.90;;;;;;5082811;28;20028;-72
2021/05/14 12:26:18;;;;;;;7.53;3.05;;;14.30;99.90;;;;;;5084050;28;20059;-73
2021/05/14 12:28:46;;;;;;;5.25;2.60;;;14.40;99.90;;;;;;5085079;28;20029;-74
2021/05/14 12:31:11;;;;;;;6.80;3.58;;;14.50;99.90;;;;;;5084400;28;20040;-71
2021/05/14 12:33:50;;;;;;;9.63;2.85;;;14.60;99.90;;;;;;5084427;28;20029;-72
2021/05/14 12:36:25;;;;;;;15.93;3.03;;;14.60;99.90;;;;;;5084251;28;20021;-72
2021/05/14 12:38:54;;;;;;;6.97;2.70;;;14.90;99.90;;;;;;5083897;28;20033;-72
2021/05/14 12:41:30;;;;;;;11.77;2.97;;;15.00;99.90;;;;;;5084216;28;20057;-73
2021/05/14 12:44:16;;;;;;;6.82;2.92;;;15.10;99.90;;;;;;5084379;28;20029;-71
2021/05/14 12:47:10;;;;;;;10.15;3.20;;;15.20;99.90;;;;;;5084378;28;20140;-69
2021/05/14 12:49:49;;;;;;;3.92;2.40;;;15.10;99.90;;;;;;5084234;28;20431;-72
2021/05/14 12:52:22;;;;;;;6.28;2.70;;;15.10;99.90;;;;;;5084221;28;20455;-73
2021/05/14 12:55:12;;;;;;;5.40;2.83;;;15.10;99.90;;;;;;5084019;28;20028;-74
2021/05/14 12:57:42;;;;;;;6.82;2.78;;;15.30;99.90;;;;;;5084217;28;20032;-72